Time;durP1;ratioP1;P1;durP2;ratioP2;P2;SDS_P1;SDS_P2;PMS_P1;PMS_P2;Temp;Humidity;BMP_temperature;BMP_pressure;BME280_temperature;BME280_humidity;BME280_pressure;Samples;Min_cycle;Max_cycle;Signal;HPM_P1;HPM_P2
2021/10/15 00:00:42;;;;;;;;;;;;;;;18.68;72.41;101458.00;5056958;28;1011;-44
2021/10/15 00:03:10;;;;;;;;;;;;;;;18.71;72.94;101461.41;5065961;28;1560;-44
2021/10/15 00:05:36;;;;;;;;;;;;;;;18.73;72.90;101486.25;5053376;28;1906;-44
2021/10/15 00:08:05;;;;;;;;;;;;;;;18.71;72.73;101466.78;5066191;28;1741;-45
2021/10/15 00:10:39;;;;;;;;;;;;;;;18.73;72.89;101471.03;5073232;28;1684;-45
2021/10/15 00:13:06;;;;;;;;;;;;;;;18.69;72.92;101472.25;5069095;28;1807;-45
2021/10/15 00:15:33;;;;;;;;;;;;;;;18.72;72.33;101468.47;5075475;28;1079;-45
2021/10/15 00:18:02;;;;;;;;;;;;;;;18.69;73.05;101462.38;5074502;28;2284;-44
2021/10/15 00:20:32;;;;;;;;;;;;;;;18.68;72.06;101459.81;5074526;28;1738;-45
2021/10/15 00:23:03;;;;;;;;;;;;;;;18.67;72.54;101442.88;5056987;28;1885;-45
2021/10/15 00:25:32;;;;;;;;;;;;;;;18.65;72.06;101447.50;5073903;28;1902;-45
2021/10/15 00:28:09;;;;;;;;;;;;;;;18.64;72.11;101448.50;5075289;28;1157;-44
2021/10/15 00:30:36;;;;;;;;;;;;;;;18.65;72.66;101447.50;5072056;28;1488;-44
2021/10/15 00:33:06;;;;;;;;;;;;;;;18.66;72.89;101443.00;5074539;28;1737;-44
2021/10/15 00:35:32;;;;;;;;;;;;;;;18.65;72.16;101442.13;5074338;28;1716;-44
2021/10/15 00:38:07;;;;;;;;;;;;;;;18.66;73.04;101441.19;5060952;28;1619;-44
2021/10/15 00:40:35;;;;;;;;;;;;;;;18.68;71.85;101433.00;5061880;28;1563;-45
2021/10/15 00:43:03;;;;;;;;;;;;;;;18.68;72.97;101441.94;5067907;28;1582;-46
2021/10/15 00:45:33;;;;;;;;;;;;;;;18.68;72.25;101436.56;5073135;28;1910;-44
2021/10/15 00:48:04;;;;;;;;;;;;;;;18.65;73.03;101438.63;5074218;28;1993;-44
2021/10/15 00:50:31;;;;;;;;;;;;;;;18.64;72.27;101435.09;5075120;28;1607;-44
2021/10/15 00:53:05;;;;;;;;;;;;;;;18.66;72.18;101433.16;5073582;28;1585;-44
2021/10/15 00:55:33;;;;;;;;;;;;;;;18.63;73.20;101430.69;5073807;28;1631;-44
2021/10/15 00:58:00;;;;;;;;;;;;;;;18.65;71.99;101422.53;5066819;28;1692;-44
2021/10/15 01:00:30;;;;;;;;;;;;;;;18.61;72.45;101421.91;5073775;28;1936;-44
2021/10/15 01:03:04;;;;;;;;;;;;;;;18.61;72.53;101421.91;5066688;28;1681;-44
2021/10/15 01:05:31;;;;;;;;;;;;;;;18.60;72.13;101420.22;5056098;28;1902;-44
2021/10/15 01:07:58;;;;;;;;;;;;;;;18.58;72.65;101422.16;5060481;28;1748;-44
2021/10/15 01:10:30;;;;;;;;;;;;;;;18.61;72.26;101421.91;5066743;28;1496;-44
2021/10/15 01:13:01;;;;;;;;;;;;;;;18.58;72.29;101406.09;5056040;28;1694;-44
2021/10/15 01:15:36;;;;;;;;;;;;;;;18.62;72.44;101423.63;5072410;28;1596;-44
2021/10/15 01:18:03;;;;;;;;;;;;;;;18.62;73.31;101422.75;5070233;28;2004;-45
2021/10/15 01:20:34;;;;;;;;;;;;;;;18.60;72.56;101420.22;5066173;28;1926;-44
2021/10/15 01:23:00;;;;;;;;;;;;;;;18.61;73.23;101421.91;5066528;28;2054;-44
2021/10/15 01:25:35;;;;;;;;;;;;;;;18.62;73.33;101418.28;5072973;28;2105;-45
2021/10/15 01:28:01;;;;;;;;;;;;;;;18.60;73.42;101414.00;5054030;28;1553;-46
2021/10/15 01:30:29;;;;;;;;;;;;;;;18.61;72.50;101411.19;5057368;28;1073;-44
2021/10/15 01:32:55;;;;;;;;;;;;;;;18.59;73.17;101402.44;5073178;28;1720;-45
2021/10/15 01:35:22;;;;;;;;;;;;;;;18.60;72.87;101395.25;5069702;28;1635;-45
2021/10/15 01:37:50;;;;;;;;;;;;;;;18.60;73.42;101403.28;5072624;28;1610;-44
2021/10/15 01:40:17;;;;;;;;;;;;;;;18.59;72.81;101397.06;5073913;28;1651;-44
2021/10/15 01:42:58;;;;;;;;;;;;;;;18.58;72.90;101402.53;5065074;28;2011;-45
2021/10/15 01:45:26;;;;;;;;;;;;;;;18.61;72.72;101410.34;5064229;28;1976;-44
2021/10/15 01:48:01;;;;;;;;;;;;;;;18.59;73.24;101402.44;5073139;28;2090;-44
2021/10/15 01:50:28;;;;;;;;;;;;;;;18.58;72.31;101382.00;5064150;28;1525;-44
2021/10/15 01:52:58;;;;;;;;;;;;;;;18.59;73.27;101405.13;5073569;28;1601;-44
2021/10/15 01:55:27;;;;;;;;;;;;;;;18.59;72.92;101399.75;5067374;28;1892;-45
2021/10/15 01:57:56;;;;;;;;;;;;;;;18.57;73.11;101393.66;5073115;28;1151;-44
2021/10/15 02:02:57;;;;;;;;;;;;;;;18.59;73.39;101397.06;5038284;28;2252;-46
2021/10/15 02:05:25;;;;;;;;;;;;;;;18.55;72.87;101389.41;5052603;28;1981;-46
2021/10/15 02:07:52;;;;;;;;;;;;;;;18.53;73.12;101400.22;5052294;28;1608;-50
2021/10/15 02:10:24;;;;;;;;;;;;;;;18.57;72.48;101399.00;5052813;28;1596;-47
2021/10/15 02:12:51;;;;;;;;;;;;;;;18.56;72.50;101389.28;5052691;28;1934;-47
2021/10/15 02:15:19;;;;;;;;;;;;;;;18.54;73.18;101383.16;5052906;28;1946;-47
2021/10/15 02:17:47;;;;;;;;;;;;;;;18.53;73.41;101384.16;5052450;28;1571;-47
2021/10/15 02:20:19;;;;;;;;;;;;;;;18.52;73.02;101393.16;5052003;28;1580;-46
2021/10/15 02:22:47;;;;;;;;;;;;;;;18.54;73.01;101393.03;5052972;28;1606;-47
2021/10/15 02:25:19;;;;;;;;;;;;;;;18.56;72.48;101381.25;5052292;28;1914;-47
2021/10/15 02:27:48;;;;;;;;;;;;;;;18.53;73.30;101389.50;5052473;28;1965;-47
2021/10/15 02:30:16;;;;;;;;;;;;;;;18.51;73.20;101388.78;5050712;28;1852;-47
2021/10/15 02:32:43;;;;;;;;;;;;;;;18.60;72.92;101390.75;5052217;28;1809;-47
2021/10/15 02:35:18;;;;;;;;;;;;;;;19.14;71.29;101391.97;5048131;28;1680;-47
2021/10/15 02:37:49;;;;;;;;;;;;;;;19.19;70.52;101394.28;5046623;28;1665;-48
2021/10/15 02:40:16;;;;;;;;;;;;;;;19.07;72.21;101391.59;5032938;28;1067;-47
2021/10/15 02:42:42;;;;;;;;;;;;;;;19.21;71.10;101376.25;5051788;28;1632;-46
2021/10/15 02:45:11;;;;;;;;;;;;;;;19.31;71.83;101387.09;5052164;28;1906;-46
2021/10/15 02:47:40;;;;;;;;;;;;;;;19.39;71.53;101377.44;5052092;28;1611;-46
2021/10/15 02:50:08;;;;;;;;;;;;;;;19.65;70.92;101374.47;5050561;28;1829;-47
2021/10/15 02:52:56;;;;;;;;;;;;;;;19.52;70.47;101396.09;5052488;28;1943;-46
2021/10/15 02:58:04;;;;;;;;;;;;;;;19.45;71.01;101384.16;5036155;28;1850;-45
2021/10/15 03:00:36;;;;;;;;;;;;;;;19.78;69.58;101385.97;5046805;28;1199;-44
2021/10/15 03:03:06;;;;;;;;;;;;;;;19.86;70.15;101388.03;5051576;28;1502;-44
2021/10/15 03:08:16;;;;;;;;;;;;;;;19.89;69.21;101390.44;5036801;28;2212;-44
2021/10/15 03:10:43;;;;;;;;;;;;;;;19.89;69.91;101376.19;5051256;28;1502;-44
2021/10/15 03:13:09;;;;;;;;;;;;;;;19.91;69.45;101380.44;5051596;28;1782;-44
2021/10/15 03:15:43;;;;;;;;;;;;;;;19.91;70.11;101379.59;5049170;28;1064;-43
2021/10/15 03:18:12;;;;;;;;;;;;;;;19.89;69.21;101377.03;5050997;28;1602;-44
2021/10/15 03:21:01;;;;;;;;;;;;;;;19.99;69.11;101383.31;5051525;28;2568;-44
2021/10/15 03:23:35;;;;;;;;;;;;;;;19.76;69.32;101382.56;5051416;28;1634;-44
2021/10/15 03:26:03;;;;;;;;;;;;;;;19.64;70.71;101372.78;5050668;28;1902;-44
2021/10/15 03:28:30;;;;;;;;;;;;;;;19.76;69.40;101382.56;5048526;28;1720;-44
2021/10/15 03:31:02;;;;;;;;;;;;;;;20.09;68.68;101378.06;5049856;28;1436;-44
2021/10/15 03:33:35;;;;;;;;;;;;;;;20.17;69.23;101380.09;5050847;28;1984;-44
2021/10/15 03:38:45;;;;;;;;;;;;;;;19.71;70.58;101360.59;5043540;28;1669;-43
2021/10/15 03:41:13;;;;;;;;;;;;;;;19.81;70.21;101364.22;5051227;28;1633;-44
2021/10/15 03:44:00;;;;;;;;;;;;;;;19.98;69.96;101364.69;5051466;28;1995;-44
2021/10/15 03:46:39;;;;;;;;;;;;;;;20.00;68.95;101373.47;5055785;28;1902;-44
2021/10/15 03:49:20;;;;;;;;;;;;;;;20.11;69.57;101365.34;5055104;28;1765;-44
2021/10/15 03:51:50;;;;;;;;;;;;;;;19.90;69.30;101361.78;5051102;28;1522;-44
2021/10/15 03:54:18;;;;;;;;;;;;;;;19.76;69.67;101366.44;5054870;28;1786;-44
2021/10/15 03:56:45;;;;;;;;;;;;;;;19.60;70.42;101355.25;5053085;28;1977;-45
2021/10/15 03:59:12;;;;;;;;;;;;;;;19.47;71.50;101356.22;5054048;28;1963;-44
2021/10/15 04:01:41;;;;;;;;;;;;;;;19.41;71.48;101361.25;5043396;28;1478;-44
2021/10/15 04:04:08;;;;;;;;;;;;;;;19.32;71.19;101356.59;5048069;28;1537;-44
2021/10/15 04:06:36;;;;;;;;;;;;;;;19.27;71.24;101356.97;5055406;28;2355;-44
2021/10/15 04:09:07;;;;;;;;;;;;;;;19.21;71.74;101357.47;5054823;28;1735;-46
2021/10/15 04:11:38;;;;;;;;;;;;;;;19.17;71.95;101342.59;5054926;28;2120;-45
2021/10/15 04:14:05;;;;;;;;;;;;;;;19.16;71.46;101340.88;5054903;28;1586;-44
2021/10/15 04:16:33;;;;;;;;;;;;;;;19.16;72.43;101347.13;5055670;28;992;-44
2021/10/15 04:19:01;;;;;;;;;;;;;;;19.11;70.66;101343.94;5055396;28;1867;-45
2021/10/15 04:21:29;;;;;;;;;;;;;;;19.14;71.64;101326.75;5055143;28;2036;-43
2021/10/15 04:23:56;;;;;;;;;;;;;;;19.17;71.14;101356.00;5044787;28;12868;-44
2021/10/15 04:26:22;;;;;;;;;;;;;;;19.22;72.09;101346.63;5053931;28;1937;-46
2021/10/15 04:28:52;;;;;;;;;;;;;;;19.26;71.35;101356.13;5053537;28;1486;-46
2021/10/15 04:31:26;;;;;;;;;;;;;;;19.17;71.46;101347.97;5055100;28;1294;-47
2021/10/15 04:33:57;;;;;;;;;;;;;;;19.26;72.04;101360.66;5055004;28;1875;-48
2021/10/15 04:36:29;;;;;;;;;;;;;;;18.99;71.92;101351.13;5054899;28;1766;-48
2021/10/15 04:38:55;;;;;;;;;;;;;;;19.07;72.39;101361.25;5054348;28;1889;-47
2021/10/15 04:41:23;;;;;;;;;;;;;;;19.10;72.02;101350.31;5054505;28;1678;-47
2021/10/15 04:43:49;;;;;;;;;;;;;;;19.08;72.44;101361.13;5041007;28;1845;-47
2021/10/15 04:46:16;;;;;;;;;;;;;;;19.05;72.93;101356.00;5054952;28;1909;-48
2021/10/15 04:48:46;;;;;;;;;;;;;;;19.03;73.45;101367.84;5054445;28;1803;-48
2021/10/15 04:51:13;;;;;;;;;;;;;;;19.12;73.04;101367.13;5054191;28;1707;-47
2021/10/15 04:53:48;;;;;;;;;;;;;;;19.10;72.36;101360.16;5051894;28;1563;-47
2021/10/15 04:56:16;;;;;;;;;;;;;;;19.07;72.47;101372.81;5053217;28;1739;-47
2021/10/15 04:58:42;;;;;;;;;;;;;;;19.00;73.03;101374.28;5054068;28;1867;-47
2021/10/15 05:01:10;;;;;;;;;;;;;;;19.00;72.97;101347.50;5054302;28;1445;-47
2021/10/15 05:03:37;;;;;;;;;;;;;;;18.99;72.30;101348.44;5053396;28;2005;-44
2021/10/15 05:06:06;;;;;;;;;;;;;;;19.02;72.42;101352.72;5053756;28;1946;-45
2021/10/15 05:08:43;;;;;;;;;;;;;;;19.04;72.33;101362.34;5041188;28;1873;-45
2021/10/15 05:11:15;;;;;;;;;;;;;;;19.04;71.93;101357.00;5053244;28;1561;-45
2021/10/15 05:13:41;;;;;;;;;;;;;;;19.05;72.38;101356.00;5053776;28;1588;-45
2021/10/15 05:16:09;;;;;;;;;;;;;;;18.95;72.24;101349.66;5053209;28;1542;-45
2021/10/15 05:18:37;;;;;;;;;;;;;;;18.86;73.08;101366.47;5052942;28;1875;-44
2021/10/15 05:21:12;;;;;;;;;;;;;;;18.83;73.57;101364.88;5053395;28;1967;-46
2021/10/15 05:23:41;;;;;;;;;;;;;;;18.81;74.39;101365.97;5037957;28;1961;-45
2021/10/15 05:26:08;;;;;;;;;;;;;;;18.69;74.70;101367.75;5045262;28;1977;-45
2021/10/15 05:28:49;;;;;;;;;;;;;;;18.66;72.66;101359.94;5050918;28;1452;-45
2021/10/15 05:31:26;;;;;;;;;;;;;;;18.71;72.39;101368.50;5044621;28;1730;-44
2021/10/15 05:33:54;;;;;;;;;;;;;;;18.67;73.00;101381.25;5042774;28;1519;-45
2021/10/15 05:36:23;;;;;;;;;;;;;;;18.68;73.02;101368.72;5016388;28;1540;-44
2021/10/15 05:41:33;;;;;;;;;;;;;;;18.26;64.23;101374.59;5042947;28;3002;-44
2021/10/15 05:44:00;;;;;;;;;;;;;;;18.12;62.13;101374.75;5052377;28;1455;-44
2021/10/15 05:46:28;;;;;;;;;;;;;;;18.05;63.24;101377.03;5051321;28;1954;-43
2021/10/15 05:48:54;;;;;;;;;;;;;;;18.12;65.98;101371.22;5050416;28;1464;-44
2021/10/15 05:51:22;;;;;;;;;;;;;;;18.17;66.11;101369.91;5050237;28;1577;-44
2021/10/15 05:53:51;;;;;;;;;;;;;;;18.21;66.54;101360.69;5051034;28;1670;-41
2021/10/15 05:56:43;;;;;;;;;;;;;;;18.23;66.42;101353.38;5047721;28;1715;-41
2021/10/15 05:59:09;;;;;;;;;;;;;;;18.25;67.30;101355.94;5046443;28;1711;-42
2021/10/15 06:01:37;;;;;;;;;;;;;;;18.22;66.41;101350.81;5051906;28;1563;-42
2021/10/15 06:04:42;;;;;;;;;;;;;;;18.26;67.17;101357.66;5051605;28;1651;-40
2021/10/15 06:15:28;;;;;;;;;;;;;;;18.22;66.70;101351.69;5051813;28;2189;-41
2021/10/15 06:17:56;;;;;;;;;;;;;;;18.27;67.77;101362.03;5051756;28;1641;-42
2021/10/15 06:20:22;;;;;;;;;;;;;;;18.25;66.36;101355.94;5051156;28;1532;-41
2021/10/15 06:22:49;;;;;;;;;;;;;;;18.31;68.08;101365.34;5051895;28;1748;-42
2021/10/15 06:25:16;;;;;;;;;;;;;;;18.38;68.34;101362.09;5052965;28;1430;-42
2021/10/15 06:27:42;;;;;;;;;;;;;;;18.29;66.73;101360.94;5051384;28;1996;-41
2021/10/15 06:30:09;;;;;;;;;;;;;;;18.22;66.70;101357.06;5051436;28;1638;-42
2021/10/15 06:32:35;;;;;;;;;;;;;;;18.23;67.40;101361.41;5033235;28;1939;-42
2021/10/15 06:35:03;;;;;;;;;;;;;;;18.23;67.23;101364.09;5049834;28;1748;-43
2021/10/15 06:37:30;;;;;;;;;;;;;;;18.39;69.17;101361.09;5052600;28;1064;-41
2021/10/15 06:39:56;;;;;;;;;;;;;;;18.53;69.04;101375.28;5051050;28;1898;-42
2021/10/15 06:42:23;;;;;;;;;;;;;;;18.55;68.86;101355.44;5041753;28;1993;-42
2021/10/15 06:44:49;;;;;;;;;;;;;;;18.11;66.20;101369.53;5044095;28;1534;-42
2021/10/15 06:47:16;;;;;;;;;;;;;;;18.14;69.42;101359.41;5049246;28;1906;-41
2021/10/15 06:49:42;;;;;;;;;;;;;;;18.38;69.93;101356.75;5051274;28;2042;-41
2021/10/15 06:52:10;;;;;;;;;;;;;;;18.53;69.63;101353.84;5051299;28;1550;-41
2021/10/15 06:54:36;;;;;;;;;;;;;;;18.53;70.71;101343.97;5046301;28;1588;-44
2021/10/15 06:57:03;;;;;;;;;;;;;;;18.54;70.50;101332.28;5051184;28;1695;-42
2021/10/15 06:59:30;;;;;;;;;;;;;;;18.59;70.16;101323.91;5050898;28;1750;-42
2021/10/15 07:01:56;;;;;;;;;;;;;;;18.66;70.73;101352.78;5051212;28;1594;-42
2021/10/15 07:04:23;;;;;;;;;;;;;;;18.64;70.63;101335.09;5051363;28;1827;-42
2021/10/15 07:06:49;;;;;;;;;;;;;;;18.62;71.43;101332.56;5050548;28;1914;-42
2021/10/15 07:09:17;;;;;;;;;;;;;;;18.63;71.29;101336.94;5046532;28;1498;-42
2021/10/15 07:11:46;;;;;;;;;;;;;;;18.68;71.03;101341.91;5051299;28;1680;-42
2021/10/15 07:14:12;;;;;;;;;;;;;;;18.75;70.61;101345.84;5051072;28;2082;-42
2021/10/15 07:16:38;;;;;;;;;;;;;;;18.76;70.98;101338.66;5051850;28;1469;-42
2021/10/15 07:19:05;;;;;;;;;;;;;;;18.74;71.88;101343.28;5046252;28;2305;-42
2021/10/15 07:21:31;;;;;;;;;;;;;;;18.71;72.05;101335.50;5043202;28;1747;-42
2021/10/15 07:23:58;;;;;;;;;;;;;;;18.76;71.60;101344.00;5045255;28;1957;-42
2021/10/15 07:26:26;;;;;;;;;;;;;;;18.79;71.68;101365.22;5041948;28;1910;-44
2021/10/15 07:28:52;;;;;;;;;;;;;;;18.75;72.75;101342.31;5041527;28;1488;-42
2021/10/15 07:31:19;;;;;;;;;;;;;;;18.76;72.37;101362.75;5042087;28;1503;-42
2021/10/15 07:33:47;;;;;;;;;;;;;;;18.69;72.62;101347.16;5042173;28;1891;-42
2021/10/15 07:36:14;;;;;;;;;;;;;;;18.74;72.67;101372.75;5050678;28;1804;-42
2021/10/15 07:38:40;;;;;;;;;;;;;;;18.66;73.16;101350.09;5046346;28;1942;-42
2021/10/15 07:41:07;;;;;;;;;;;;;;;18.77;72.56;101362.66;5050298;28;1732;-43
2021/10/15 07:43:35;;;;;;;;;;;;;;;18.73;72.81;101363.03;5050866;28;1723;-43
2021/10/15 07:46:01;;;;;;;;;;;;;;;18.65;72.57;101359.09;5050767;28;1909;-42
2021/10/15 07:48:28;;;;;;;;;;;;;;;18.70;72.55;101361.41;5041847;28;1582;-44
2021/10/15 07:50:55;;;;;;;;;;;;;;;18.72;72.34;101370.22;5043832;28;1594;-43
2021/10/15 07:53:21;;;;;;;;;;;;;;;18.77;72.14;101372.53;5048224;28;1474;-43
2021/10/15 07:55:48;;;;;;;;;;;;;;;18.75;72.42;101361.06;5045483;28;1649;-43
2021/10/15 07:58:14;;;;;;;;;;;;;;;18.91;72.91;101363.44;5046514;28;2302;-42
2021/10/15 08:00:42;;;;;;;;;;;;;;;18.89;71.92;101363.56;5051227;28;1206;-43
2021/10/15 08:03:09;;;;;;;;;;;;;;;19.12;72.15;101355.50;5044996;28;2236;-50
2021/10/15 08:05:37;;;;;;;;;;;;;;;19.32;70.79;101361.97;5039574;28;1769;-50
2021/10/15 08:08:07;;;;;;;;;;;;;;;19.19;71.52;101357.59;5046423;28;1989;-49
2021/10/15 08:13:26;;;;;;;;;;;;;;;19.46;71.17;101359.06;5049107;28;1780;-48
2021/10/15 08:15:58;;;;;;;;;;;;;;;19.42;72.45;101346.88;5047322;28;1829;-49
2021/10/15 08:21:09;;;;;;;;;;;;;;;19.14;71.87;101337.47;5050579;28;2409;-49
2021/10/15 08:23:39;;;;;;;;;;;;;;;19.19;71.78;101338.81;5046321;28;1610;-48
2021/10/15 08:26:08;;;;;;;;;;;;;;;19.41;72.49;101329.91;5049366;28;2009;-48
2021/10/15 08:28:35;;;;;;;;;;;;;;;19.31;71.50;101339.66;5046667;28;1508;-48
2021/10/15 08:31:21;;;;;;;;;;;;;;;19.27;71.42;101331.00;5041679;28;2075;-48
2021/10/15 08:34:07;;;;;;;;;;;;;;;19.51;71.63;101324.63;5045236;28;1618;-48
2021/10/15 08:36:43;;;;;;;;;;;;;;;19.51;71.92;101319.28;5039636;28;1542;-48
2021/10/15 08:39:11;;;;;;;;;;;;;;;19.34;71.55;101317.97;5054089;28;1911;-48
2021/10/15 08:44:19;;;;;;;;;;;;;;;19.49;70.47;101305.13;5053411;28;2180;-47
2021/10/15 08:46:46;;;;;;;;;;;;;;;19.47;71.06;101307.94;5052902;28;1919;-47
2021/10/15 08:52:05;;;;;;;;;;;;;;;19.59;70.51;101340.97;5053432;28;2388;-48
2021/10/15 08:54:38;;;;;;;;;;;;;;;19.64;69.75;101324.50;5052154;28;1542;-47
2021/10/15 08:57:06;;;;;;;;;;;;;;;19.58;70.00;101325.00;5052228;28;1627;-48
2021/10/15 08:59:40;;;;;;;;;;;;;;;19.52;71.10;101323.69;5048828;28;1668;-48
2021/10/15 09:02:14;;;;;;;;;;;;;;;19.50;71.15;101332.81;5048644;28;1884;-49
2021/10/15 09:04:49;;;;;;;;;;;;;;;19.55;71.10;101325.25;5051487;28;1783;-48
2021/10/15 09:07:22;;;;;;;;;;;;;;;19.53;71.99;101324.53;5045250;28;1992;-49
2021/10/15 09:09:50;;;;;;;;;;;;;;;19.43;72.34;101321.72;5040734;28;1732;-48
2021/10/15 09:12:19;;;;;;;;;;;;;;;19.33;71.98;101321.63;5046663;28;1491;-48
2021/10/15 09:14:51;;;;;;;;;;;;;;;19.52;72.06;101309.38;5051508;28;1593;-48
2021/10/15 09:17:31;;;;;;;;;;;;;;;19.53;71.64;101303.06;5054266;28;1226;-48
2021/10/15 09:19:59;;;;;;;;;;;;;;;19.47;72.29;101317.81;5052862;28;1392;-48
2021/10/15 09:22:38;;;;;;;;;;;;;;;19.73;70.86;101321.06;5052283;28;1709;-48
2021/10/15 09:27:52;;;;;;;;;;;;;;;19.53;71.33;101320.00;5040899;28;1902;-48
2021/10/15 09:30:28;;;;;;;;;;;;;;;19.52;71.57;101325.47;5049050;28;1643;-49
2021/10/15 09:32:57;;;;;;;;;;;;;;;19.55;72.25;101314.50;5047046;28;1569;-49
2021/10/15 09:35:25;;;;;;;;;;;;;;;19.49;72.06;101315.88;5048012;28;1578;-48
2021/10/15 09:38:03;;;;;;;;;;;;;;;19.54;71.99;101297.56;5049760;28;1518;-49
2021/10/15 09:40:31;;;;;;;;;;;;;;;19.57;71.69;101286.56;5047674;28;1606;-49
2021/10/15 09:42:59;;;;;;;;;;;;;;;19.48;72.29;101298.94;5049695;28;1252;-48
2021/10/15 09:45:30;;;;;;;;;;;;;;;19.42;72.27;101299.44;5050035;28;1755;-48
2021/10/15 09:50:43;;;;;;;;;;;;;;;19.17;68.99;101295.19;5051666;28;2391;-48
2021/10/15 09:53:11;;;;;;;;;;;;;;;19.30;70.76;101283.47;5048179;28;1502;-49
2021/10/15 09:55:38;;;;;;;;;;;;;;;19.36;71.00;101283.84;5042534;28;1546;-47
2021/10/15 09:58:09;;;;;;;;;;;;;;;19.35;70.74;101274.06;5049385;28;1557;-47
2021/10/15 10:00:44;;;;;;;;;;;;;;;19.50;71.40;101279.16;5045948;28;1302;-49
2021/10/15 10:03:10;;;;;;;;;;;;;;;19.47;70.79;101270.38;5045292;28;1693;-48
2021/10/15 10:05:37;;;;;;;;;;;;;;;19.39;70.56;101278.22;5048444;28;1995;-47
2021/10/15 10:08:10;;;;;;;;;;;;;;;19.50;71.21;101279.16;5042981;28;1995;-48
2021/10/15 10:10:46;;;;;;;;;;;;;;;19.54;71.68;101275.28;5051551;28;1495;-47
2021/10/15 10:13:22;;;;;;;;;;;;;;;19.55;70.57;101267.06;5049921;28;1512;-47
2021/10/15 10:15:49;;;;;;;;;;;;;;;19.43;70.74;101273.47;5049958;28;1352;-48
2021/10/15 10:18:28;;;;;;;;;;;;;;;19.40;71.28;101257.63;5039656;28;1711;-48
2021/10/15 10:21:12;;;;;;;;;;;;;;;19.44;71.59;101280.53;5046939;28;1608;-48
2021/10/15 10:23:50;;;;;;;;;;;;;;;19.64;70.13;101269.00;5043192;28;1517;-48
2021/10/15 10:26:23;;;;;;;;;;;;;;;19.32;68.80;101277.03;5046995;28;2523;-48
2021/10/15 10:31:46;;;;;;;;;;;;;;;19.03;68.02;101253.41;5050338;28;2433;-48
2021/10/15 10:34:18;;;;;;;;;;;;;;;19.06;69.68;101247.81;5042720;28;1577;-48
2021/10/15 10:37:02;;;;;;;;;;;;;;;19.18;69.34;101251.34;5046964;28;1556;-48
2021/10/15 10:39:31;;;;;;;;;;;;;;;19.33;69.36;101268.00;5046159;28;1941;-48
2021/10/15 10:42:18;;;;;;;;;;;;;;;19.42;68.67;101255.69;5042399;28;1543;-48
2021/10/15 10:45:02;;;;;;;;;;;;;;;19.51;68.27;101260.25;5051184;28;2065;-48
2021/10/15 10:47:29;;;;;;;;;;;;;;;19.73;68.68;101256.66;5034347;28;1910;-48
2021/10/15 10:50:19;;;;;;;;;;;;;;;19.63;66.23;101247.66;5044984;28;1396;-48
2021/10/15 10:53:07;;;;;;;;;;;;;;;19.53;70.27;101242.22;5042161;28;2122;-48
2021/10/15 10:55:36;;;;;;;;;;;;;;;19.64;69.86;101249.38;5052078;28;1933;-48
2021/10/15 10:58:26;;;;;;;;;;;;;;;19.69;70.36;101231.03;5049319;28;1729;-49
2021/10/15 11:01:18;;;;;;;;;;;;;;;19.83;70.67;101232.59;5042889;28;1411;-49
2021/10/15 11:03:46;;;;;;;;;;;;;;;19.92;70.40;101234.53;5046366;28;1548;-49
2021/10/15 11:06:17;;;;;;;;;;;;;;;19.90;71.60;101228.44;5042951;28;1633;-50
2021/10/15 11:11:47;;;;;;;;;;;;;;;20.08;71.10;101217.94;5043178;28;2650;-50
2021/10/15 11:14:43;;;;;;;;;;;;;;;20.05;72.38;101226.25;5050431;28;1491;-50
2021/10/15 11:17:12;;;;;;;;;;;;;;;19.88;71.36;101229.53;5032991;28;1874;-50
2021/10/15 11:19:40;;;;;;;;;;;;;;;19.95;71.81;101219.97;5050374;28;1999;-49
2021/10/15 11:25:09;;;;;;;;;;;;;;;20.07;71.00;101213.56;5039578;28;2687;-48
2021/10/15 11:27:36;;;;;;;;;;;;;;;19.77;71.25;101204.44;5044269;28;1992;-49
2021/10/15 11:30:07;;;;;;;;;;;;;;;19.72;72.81;101213.91;5044984;28;1793;-50
2021/10/15 11:32:39;;;;;;;;;;;;;;;19.71;73.04;101202.28;5047364;28;1635;-50
2021/10/15 11:35:15;;;;;;;;;;;;;;;19.96;71.22;101201.06;5046341;28;1706;-50
2021/10/15 11:37:51;;;;;;;;;;;;;;;19.94;71.17;101191.44;5051551;28;1169;-50
2021/10/15 11:40:20;;;;;;;;;;;;;;;20.10;71.01;101182.94;5047033;28;1629;-50
2021/10/15 11:42:47;;;;;;;;;;;;;;;20.01;70.54;101181.88;5049581;28;1820;-50
2021/10/15 11:45:35;;;;;;;;;;;;;;;20.06;71.26;101182.34;5042804;28;1519;-50
2021/10/15 11:48:09;;;;;;;;;;;;;;;20.26;69.47;101185.97;5044548;28;1981;-47
2021/10/15 11:50:47;;;;;;;;;;;;;;;20.01;71.00;101182.72;5049747;28;1675;-48
2021/10/15 11:53:37;;;;;;;;;;;;;;;20.09;69.77;101176.69;5039576;28;1708;-48
2021/10/15 11:56:27;;;;;;;;;;;;;;;20.21;70.11;101162.22;5047054;28;1577;-43
2021/10/15 11:58:56;;;;;;;;;;;;;;;20.13;69.96;101145.91;5043120;28;1858;-43
2021/10/15 12:01:26;;;;;;;;;;;;;;;20.01;70.21;101141.59;5045265;28;1435;-42
2021/10/15 12:04:01;;;;;;;;;;;;;;;19.86;70.74;101133.91;5046767;28;1468;-43
2021/10/15 12:06:30;;;;;;;;;;;;;;;19.57;71.01;101141.72;5047460;28;1487;-43
2021/10/15 12:08:58;;;;;;;;;;;;;;;19.62;71.40;101133.28;5050117;28;1886;-45
2021/10/15 12:11:57;;;;;;;;;;;;;;;19.60;71.78;101129.91;5047191;28;1553;-45
2021/10/15 12:14:25;;;;;;;;;;;;;;;19.71;71.52;101132.53;5047739;28;1486;-46
2021/10/15 12:16:59;;;;;;;;;;;;;;;19.63;72.23;101109.00;5046756;28;2762;-46
2021/10/15 12:19:30;;;;;;;;;;;;;;;19.74;71.62;101115.34;5052239;28;1520;-45
2021/10/15 12:22:02;;;;;;;;;;;;;;;19.77;70.44;101115.88;5048583;28;1486;-47
2021/10/15 12:24:32;;;;;;;;;;;;;;;19.80;71.61;101098.69;5053962;28;1516;-44
2021/10/15 12:27:06;;;;;;;;;;;;;;;19.79;71.75;101108.56;5049871;28;1727;-46
2021/10/15 12:29:33;;;;;;;;;;;;;;;19.78;70.71;101117.59;5046700;28;2034;-45
2021/10/15 12:32:11;;;;;;;;;;;;;;;19.91;70.11;101105.81;5046555;28;1553;-46
2021/10/15 12:35:12;;;;;;;;;;;;;;;19.83;70.59;101115.34;5044193;28;1818;-46
2021/10/15 12:37:43;;;;;;;;;;;;;;;19.75;71.82;101085.66;5048374;28;1182;-46
2021/10/15 12:40:28;;;;;;;;;;;;;;;19.83;70.42;101093.03;5054357;28;1428;-45
2021/10/15 12:43:14;;;;;;;;;;;;;;;19.70;71.32;101087.88;5046717;28;1430;-45
2021/10/15 12:45:45;;;;;;;;;;;;;;;19.85;70.72;101081.19;5052608;28;1507;-40
2021/10/15 12:48:16;;;;;;;;;;;;;;;20.05;70.53;101078.59;5046581;28;1902;-40
2021/10/15 12:50:59;;;;;;;;;;;;;;;19.77;71.44;101081.00;5054103;28;1570;-39
2021/10/15 12:53:26;;;;;;;;;;;;;;;19.67;72.23;101058.59;5048143;28;1498;-39
2021/10/15 12:55:58;;;;;;;;;;;;;;;19.85;70.36;101064.25;5050644;28;1540;-39
2021/10/15 12:58:26;;;;;;;;;;;;;;;19.91;69.94;101057.50;5045918;28;2059;-43
2021/10/15 13:00:54;;;;;;;;;;;;;;;19.93;70.11;101060.91;5038867;28;1239;-43
2021/10/15 13:03:20;;;;;;;;;;;;;;;19.90;70.03;101047.75;5050115;28;1618;-43
2021/10/15 13:05:49;;;;;;;;;;;;;;;19.84;70.89;101041.94;5043618;28;1597;-40
2021/10/15 13:08:16;;;;;;;;;;;;;;;19.59;71.93;101032.44;5048939;28;1909;-41
2021/10/15 13:10:42;;;;;;;;;;;;;;;19.49;72.33;101039.59;5050520;28;1565;-41
2021/10/15 13:13:09;;;;;;;;;;;;;;;19.52;71.81;101035.78;5048945;28;1609;-41
2021/10/15 13:15:35;;;;;;;;;;;;;;;19.63;71.52;101043.75;5046860;28;1251;-40
2021/10/15 13:18:02;;;;;;;;;;;;;;;19.95;70.14;101042.81;5050739;28;1592;-40
2021/10/15 13:20:29;;;;;;;;;;;;;;;19.93;69.84;101039.41;5052183;28;2289;-40
2021/10/15 13:22:58;;;;;;;;;;;;;;;19.77;71.25;101038.06;5044608;28;1581;-40
2021/10/15 13:25:27;;;;;;;;;;;;;;;19.77;70.87;101035.38;5048062;28;1735;-40
2021/10/15 13:30:39;;;;;;;;;;;;;;;19.81;71.19;101025.25;5044003;28;2226;-40
2021/10/15 13:33:08;;;;;;;;;;;;;;;19.97;69.98;101011.31;5042515;28;1620;-40
2021/10/15 13:35:37;;;;;;;;;;;;;;;19.90;69.89;101023.59;5051450;28;1502;-41
2021/10/15 13:38:08;;;;;;;;;;;;;;;19.77;70.89;101029.19;5049825;28;1606;-40
2021/10/15 13:40:42;;;;;;;;;;;;;;;19.70;71.25;101023.47;5048865;28;1500;-40
2021/10/15 13:46:08;;;;;;;;;;;;;;;19.90;69.79;101034.34;5050020;28;2859;-40
2021/10/15 13:51:31;;;;;;;;;;;;;;;19.95;69.49;101030.25;5010145;28;1797;-41
2021/10/15 13:54:00;;;;;;;;;;;;;;;19.74;71.21;101016.88;5010047;28;1738;-41
2021/10/15 13:56:31;;;;;;;;;;;;;;;19.69;70.97;101029.81;5010213;28;1574;-41
2021/10/15 13:59:06;;;;;;;;;;;;;;;19.78;69.93;101018.31;5015285;28;1809;-41
2021/10/15 14:01:39;;;;;;;;;;;;;;;19.77;69.87;101011.25;5046607;28;1620;-41